sensor_id;sensor_type;location;lat;lon;timestamp;P1;durP1;ratioP1;P2;durP2;ratioP2
19358;SDS011;9815;52.334;20.890;2023-06-04T00:00:31;23.37;;;11.60;;
19358;SDS011;9815;52.334;20.890;2023-06-04T00:03:00;24.60;;;12.03;;
19358;SDS011;9815;52.334;20.890;2023-06-04T00:05:29;30.07;;;12.33;;
19358;SDS011;9815;52.334;20.890;2023-06-04T00:07:57;33.97;;;13.27;;
19358;SDS011;9815;52.334;20.890;2023-06-04T00:10:25;27.87;;;13.87;;
19358;SDS011;9815;52.334;20.890;2023-06-04T00:12:54;26.10;;;13.87;;
19358;SDS011;9815;52.334;20.890;2023-06-04T00:15:22;27.57;;;13.70;;
19358;SDS011;9815;52.334;20.890;2023-06-04T00:17:50;34.33;;;14.27;;
19358;SDS011;9815;52.334;20.890;2023-06-04T00:20:18;27.43;;;13.33;;
19358;SDS011;9815;52.334;20.890;2023-06-04T00:22:48;28.33;;;13.53;;
19358;SDS011;9815;52.334;20.890;2023-06-04T00:25:16;28.10;;;13.03;;
19358;SDS011;9815;52.334;20.890;2023-06-04T00:27:44;28.60;;;13.03;;
19358;SDS011;9815;52.334;20.890;2023-06-04T00:30:13;25.23;;;12.90;;
19358;SDS011;9815;52.334;20.890;2023-06-04T00:32:41;26.40;;;13.00;;
19358;SDS011;9815;52.334;20.890;2023-06-04T00:35:10;32.33;;;13.07;;
19358;SDS011;9815;52.334;20.890;2023-06-04T00:37:38;27.40;;;12.80;;
19358;SDS011;9815;52.334;20.890;2023-06-04T00:40:08;27.00;;;12.43;;
19358;SDS011;9815;52.334;20.890;2023-06-04T00:42:37;25.33;;;12.50;;
19358;SDS011;9815;52.334;20.890;2023-06-04T00:45:06;29.40;;;13.33;;
19358;SDS011;9815;52.334;20.890;2023-06-04T00:47:36;26.53;;;12.50;;
19358;SDS011;9815;52.334;20.890;2023-06-04T00:50:04;24.63;;;12.77;;
19358;SDS011;9815;52.334;20.890;2023-06-04T00:52:34;26.07;;;12.70;;
19358;SDS011;9815;52.334;20.890;2023-06-04T00:55:02;27.73;;;12.53;;
19358;SDS011;9815;52.334;20.890;2023-06-04T00:57:32;26.53;;;12.50;;
19358;SDS011;9815;52.334;20.890;2023-06-04T01:00:00;24.13;;;11.93;;
19358;SDS011;9815;52.334;20.890;2023-06-04T01:02:30;22.93;;;11.30;;
19358;SDS011;9815;52.334;20.890;2023-06-04T01:05:02;21.57;;;11.70;;
19358;SDS011;9815;52.334;20.890;2023-06-04T01:07:35;23.23;;;11.77;;
19358;SDS011;9815;52.334;20.890;2023-06-04T01:10:04;24.23;;;11.23;;
19358;SDS011;9815;52.334;20.890;2023-06-04T01:12:34;23.40;;;11.60;;
19358;SDS011;9815;52.334;20.890;2023-06-04T01:15:02;25.20;;;11.80;;
19358;SDS011;9815;52.334;20.890;2023-06-04T01:17:31;24.80;;;11.47;;
19358;SDS011;9815;52.334;20.890;2023-06-04T01:20:16;24.73;;;12.03;;
19358;SDS011;9815;52.334;20.890;2023-06-04T01:22:55;23.70;;;11.40;;
19358;SDS011;9815;52.334;20.890;2023-06-04T01:25:34;23.20;;;11.30;;
19358;SDS011;9815;52.334;20.890;2023-06-04T01:28:07;21.83;;;11.30;;
19358;SDS011;9815;52.334;20.890;2023-06-04T01:30:37;21.63;;;11.03;;
19358;SDS011;9815;52.334;20.890;2023-06-04T01:33:10;22.13;;;11.33;;
19358;SDS011;9815;52.334;20.890;2023-06-04T01:35:39;22.10;;;11.23;;
19358;SDS011;9815;52.334;20.890;2023-06-04T01:38:07;19.83;;;10.23;;
19358;SDS011;9815;52.334;20.890;2023-06-04T01:40:36;22.37;;;11.40;;
19358;SDS011;9815;52.334;20.890;2023-06-04T01:43:04;23.70;;;10.97;;
19358;SDS011;9815;52.334;20.890;2023-06-04T01:45:34;22.53;;;10.77;;
19358;SDS011;9815;52.334;20.890;2023-06-04T01:48:02;24.57;;;11.43;;
19358;SDS011;9815;52.334;20.890;2023-06-04T01:50:32;22.90;;;11.03;;
19358;SDS011;9815;52.334;20.890;2023-06-04T01:53:00;22.03;;;11.30;;
19358;SDS011;9815;52.334;20.890;2023-06-04T01:55:28;19.80;;;10.37;;
19358;SDS011;9815;52.334;20.890;2023-06-04T01:58:00;19.80;;;10.90;;
19358;SDS011;9815;52.334;20.890;2023-06-04T02:00:28;19.60;;;10.17;;
19358;SDS011;9815;52.334;20.890;2023-06-04T02:02:57;20.13;;;10.07;;
19358;SDS011;9815;52.334;20.890;2023-06-04T02:05:26;22.20;;;10.70;;
19358;SDS011;9815;52.334;20.890;2023-06-04T02:07:54;24.37;;;10.80;;
19358;SDS011;9815;52.334;20.890;2023-06-04T02:10:23;19.50;;;10.00;;
19358;SDS011;9815;52.334;20.890;2023-06-04T02:12:52;19.00;;;10.03;;
19358;SDS011;9815;52.334;20.890;2023-06-04T02:15:22;18.47;;;9.33;;
19358;SDS011;9815;52.334;20.890;2023-06-04T02:17:50;16.97;;;9.33;;
19358;SDS011;9815;52.334;20.890;2023-06-04T02:20:23;20.13;;;8.97;;
19358;SDS011;9815;52.334;20.890;2023-06-04T02:22:51;18.30;;;9.70;;
19358;SDS011;9815;52.334;20.890;2023-06-04T02:25:21;15.73;;;9.03;;
19358;SDS011;9815;52.334;20.890;2023-06-04T02:27:49;17.63;;;9.37;;
19358;SDS011;9815;52.334;20.890;2023-06-04T02:30:17;16.47;;;8.60;;
19358;SDS011;9815;52.334;20.890;2023-06-04T02:32:46;17.27;;;9.30;;
19358;SDS011;9815;52.334;20.890;2023-06-04T02:35:18;17.50;;;8.90;;
19358;SDS011;9815;52.334;20.890;2023-06-04T02:37:49;16.10;;;8.43;;
19358;SDS011;9815;52.334;20.890;2023-06-04T02:40:17;15.07;;;7.90;;
19358;SDS011;9815;52.334;20.890;2023-06-04T02:42:45;14.33;;;8.17;;
19358;SDS011;9815;52.334;20.890;2023-06-04T02:45:14;14.17;;;8.00;;
19358;SDS011;9815;52.334;20.890;2023-06-04T02:47:42;16.50;;;8.00;;
19358;SDS011;9815;52.334;20.890;2023-06-04T02:50:10;16.37;;;8.33;;
19358;SDS011;9815;52.334;20.890;2023-06-04T02:52:39;12.40;;;7.17;;
19358;SDS011;9815;52.334;20.890;2023-06-04T02:55:11;14.33;;;7.80;;
19358;SDS011;9815;52.334;20.890;2023-06-04T02:57:39;12.83;;;7.57;;
19358;SDS011;9815;52.334;20.890;2023-06-04T03:00:10;14.37;;;7.47;;
19358;SDS011;9815;52.334;20.890;2023-06-04T03:02:40;15.30;;;7.57;;
19358;SDS011;9815;52.334;20.890;2023-06-04T03:05:09;9.73;;;6.57;;
19358;SDS011;9815;52.334;20.890;2023-06-04T03:07:41;11.30;;;6.27;;
19358;SDS011;9815;52.334;20.890;2023-06-04T03:10:13;13.23;;;6.50;;
19358;SDS011;9815;52.334;20.890;2023-06-04T03:12:42;12.30;;;6.33;;
19358;SDS011;9815;52.334;20.890;2023-06-04T03:15:10;13.67;;;6.63;;
19358;SDS011;9815;52.334;20.890;2023-06-04T03:17:39;11.37;;;6.17;;
19358;SDS011;9815;52.334;20.890;2023-06-04T03:20:08;13.83;;;6.37;;
19358;SDS011;9815;52.334;20.890;2023-06-04T03:22:38;14.40;;;6.40;;
19358;SDS011;9815;52.334;20.890;2023-06-04T03:25:07;13.17;;;6.80;;
19358;SDS011;9815;52.334;20.890;2023-06-04T03:27:37;12.07;;;6.40;;
19358;SDS011;9815;52.334;20.890;2023-06-04T03:30:06;18.07;;;6.40;;
19358;SDS011;9815;52.334;20.890;2023-06-04T03:32:54;10.43;;;6.00;;
19358;SDS011;9815;52.334;20.890;2023-06-04T03:35:22;13.43;;;5.87;;
19358;SDS011;9815;52.334;20.890;2023-06-04T03:37:51;11.40;;;6.17;;
19358;SDS011;9815;52.334;20.890;2023-06-04T03:40:19;12.97;;;5.80;;
19358;SDS011;9815;52.334;20.890;2023-06-04T03:42:49;13.23;;;6.10;;
19358;SDS011;9815;52.334;20.890;2023-06-04T03:45:19;11.57;;;6.37;;
19358;SDS011;9815;52.334;20.890;2023-06-04T03:47:48;16.07;;;6.30;;
19358;SDS011;9815;52.334;20.890;2023-06-04T03:50:17;13.33;;;5.90;;
19358;SDS011;9815;52.334;20.890;2023-06-04T03:52:45;13.90;;;5.97;;
19358;SDS011;9815;52.334;20.890;2023-06-04T03:55:16;11.40;;;5.70;;
19358;SDS011;9815;52.334;20.890;2023-06-04T03:57:48;10.33;;;5.53;;
19358;SDS011;9815;52.334;20.890;2023-06-04T04:00:18;14.77;;;5.87;;
19358;SDS011;9815;52.334;20.890;2023-06-04T04:02:51;9.73;;;5.70;;
19358;SDS011;9815;52.334;20.890;2023-06-04T04:05:24;10.30;;;5.93;;
19358;SDS011;9815;52.334;20.890;2023-06-04T04:07:52;14.43;;;5.60;;
19358;SDS011;9815;52.334;20.890;2023-06-04T04:10:28;9.20;;;5.40;;
19358;SDS011;9815;52.334;20.890;2023-06-04T04:12:58;11.50;;;5.97;;
19358;SDS011;9815;52.334;20.890;2023-06-04T04:15:30;10.63;;;5.30;;
19358;SDS011;9815;52.334;20.890;2023-06-04T04:18:00;14.33;;;5.73;;
19358;SDS011;9815;52.334;20.890;2023-06-04T04:20:30;12.03;;;6.33;;
19358;SDS011;9815;52.334;20.890;2023-06-04T04:23:03;10.00;;;5.47;;
19358;SDS011;9815;52.334;20.890;2023-06-04T04:25:34;13.77;;;5.40;;
19358;SDS011;9815;52.334;20.890;2023-06-04T04:28:06;11.80;;;5.80;;
19358;SDS011;9815;52.334;20.890;2023-06-04T04:30:36;8.80;;;5.27;;
19358;SDS011;9815;52.334;20.890;2023-06-04T04:33:07;14.00;;;5.37;;
19358;SDS011;9815;52.334;20.890;2023-06-04T04:35:42;10.63;;;5.50;;
19358;SDS011;9815;52.334;20.890;2023-06-04T04:38:13;12.73;;;5.60;;
19358;SDS011;9815;52.334;20.890;2023-06-04T04:40:49;9.53;;;5.50;;
19358;SDS011;9815;52.334;20.890;2023-06-04T04:43:27;11.40;;;5.73;;
19358;SDS011;9815;52.334;20.890;2023-06-04T04:45:58;10.20;;;5.60;;
19358;SDS011;9815;52.334;20.890;2023-06-04T04:48:26;10.60;;;5.77;;
19358;SDS011;9815;52.334;20.890;2023-06-04T04:50:54;10.43;;;5.53;;
19358;SDS011;9815;52.334;20.890;2023-06-04T04:53:23;10.57;;;5.20;;
19358;SDS011;9815;52.334;20.890;2023-06-04T04:55:51;13.80;;;6.10;;
19358;SDS011;9815;52.334;20.890;2023-06-04T04:58:21;9.83;;;5.43;;
19358;SDS011;9815;52.334;20.890;2023-06-04T05:00:49;12.93;;;5.70;;
19358;SDS011;9815;52.334;20.890;2023-06-04T05:03:17;10.73;;;5.40;;
19358;SDS011;9815;52.334;20.890;2023-06-04T05:05:46;8.50;;;4.67;;
19358;SDS011;9815;52.334;20.890;2023-06-04T05:08:14;10.10;;;5.33;;
19358;SDS011;9815;52.334;20.890;2023-06-04T05:10:42;10.30;;;5.10;;
19358;SDS011;9815;52.334;20.890;2023-06-04T05:13:11;12.23;;;4.90;;
19358;SDS011;9815;52.334;20.890;2023-06-04T05:15:47;10.03;;;4.93;;
19358;SDS011;9815;52.334;20.890;2023-06-04T05:18:21;11.93;;;5.50;;
19358;SDS011;9815;52.334;20.890;2023-06-04T05:20:58;8.73;;;4.50;;
19358;SDS011;9815;52.334;20.890;2023-06-04T05:23:31;10.23;;;4.50;;
19358;SDS011;9815;52.334;20.890;2023-06-04T05:26:01;10.07;;;4.50;;
19358;SDS011;9815;52.334;20.890;2023-06-04T05:28:30;9.90;;;4.30;;
19358;SDS011;9815;52.334;20.890;2023-06-04T05:31:01;8.73;;;4.07;;
19358;SDS011;9815;52.334;20.890;2023-06-04T05:33:33;9.17;;;4.00;;
19358;SDS011;9815;52.334;20.890;2023-06-04T05:36:06;5.83;;;3.10;;
19358;SDS011;9815;52.334;20.890;2023-06-04T05:38:41;9.43;;;3.13;;
19358;SDS011;9815;52.334;20.890;2023-06-04T05:41:12;5.87;;;3.17;;
19358;SDS011;9815;52.334;20.890;2023-06-04T05:43:41;9.70;;;2.93;;
19358;SDS011;9815;52.334;20.890;2023-06-04T05:46:14;7.63;;;2.87;;
19358;SDS011;9815;52.334;20.890;2023-06-04T05:48:44;8.27;;;3.10;;
19358;SDS011;9815;52.334;20.890;2023-06-04T05:51:13;5.83;;;3.20;;
19358;SDS011;9815;52.334;20.890;2023-06-04T05:53:42;7.13;;;2.60;;
19358;SDS011;9815;52.334;20.890;2023-06-04T05:56:11;4.00;;;2.43;;
19358;SDS011;9815;52.334;20.890;2023-06-04T05:58:39;4.63;;;2.40;;
19358;SDS011;9815;52.334;20.890;2023-06-04T06:01:09;4.20;;;2.00;;
19358;SDS011;9815;52.334;20.890;2023-06-04T06:03:39;4.43;;;2.13;;
19358;SDS011;9815;52.334;20.890;2023-06-04T06:06:07;5.43;;;1.83;;
19358;SDS011;9815;52.334;20.890;2023-06-04T06:08:36;4.03;;;1.70;;
19358;SDS011;9815;52.334;20.890;2023-06-04T06:11:05;4.67;;;1.80;;
19358;SDS011;9815;52.334;20.890;2023-06-04T06:13:36;2.50;;;1.40;;
19358;SDS011;9815;52.334;20.890;2023-06-04T06:16:06;4.50;;;1.77;;
19358;SDS011;9815;52.334;20.890;2023-06-04T06:18:36;3.27;;;1.60;;
19358;SDS011;9815;52.334;20.890;2023-06-04T06:21:05;2.70;;;1.40;;
19358;SDS011;9815;52.334;20.890;2023-06-04T06:23:34;2.97;;;1.67;;
19358;SDS011;9815;52.334;20.890;2023-06-04T06:26:03;3.00;;;1.30;;
19358;SDS011;9815;52.334;20.890;2023-06-04T06:28:39;2.93;;;1.50;;
19358;SDS011;9815;52.334;20.890;2023-06-04T06:31:08;3.10;;;1.60;;
19358;SDS011;9815;52.334;20.890;2023-06-04T06:33:37;4.57;;;1.30;;
19358;SDS011;9815;52.334;20.890;2023-06-04T06:36:09;2.60;;;1.40;;
19358;SDS011;9815;52.334;20.890;2023-06-04T06:38:38;2.47;;;1.30;;
19358;SDS011;9815;52.334;20.890;2023-06-04T06:41:07;4.00;;;1.40;;
19358;SDS011;9815;52.334;20.890;2023-06-04T06:43:35;2.77;;;1.07;;
19358;SDS011;9815;52.334;20.890;2023-06-04T06:46:03;4.03;;;1.20;;
19358;SDS011;9815;52.334;20.890;2023-06-04T06:48:32;1.30;;;1.00;;
19358;SDS011;9815;52.334;20.890;2023-06-04T06:51:00;3.07;;;1.60;;
19358;SDS011;9815;52.334;20.890;2023-06-04T06:53:29;5.63;;;2.00;;
19358;SDS011;9815;52.334;20.890;2023-06-04T06:55:57;2.60;;;1.50;;
19358;SDS011;9815;52.334;20.890;2023-06-04T06:58:25;4.13;;;2.30;;
19358;SDS011;9815;52.334;20.890;2023-06-04T07:00:53;3.67;;;1.80;;
19358;SDS011;9815;52.334;20.890;2023-06-04T07:03:23;2.00;;;1.30;;
19358;SDS011;9815;52.334;20.890;2023-06-04T07:05:51;2.60;;;1.00;;
19358;SDS011;9815;52.334;20.890;2023-06-04T07:08:20;2.00;;;0.90;;
19358;SDS011;9815;52.334;20.890;2023-06-04T07:10:49;2.87;;;1.10;;
19358;SDS011;9815;52.334;20.890;2023-06-04T07:13:18;1.47;;;0.90;;
19358;SDS011;9815;52.334;20.890;2023-06-04T07:15:46;3.67;;;0.93;;
19358;SDS011;9815;52.334;20.890;2023-06-04T07:18:14;1.67;;;1.00;;
19358;SDS011;9815;52.334;20.890;2023-06-04T07:20:42;1.40;;;1.00;;
19358;SDS011;9815;52.334;20.890;2023-06-04T07:23:10;1.80;;;1.00;;
19358;SDS011;9815;52.334;20.890;2023-06-04T07:25:42;3.30;;;0.90;;
19358;SDS011;9815;52.334;20.890;2023-06-04T07:28:20;2.47;;;0.90;;
19358;SDS011;9815;52.334;20.890;2023-06-04T07:30:48;3.17;;;1.00;;
19358;SDS011;9815;52.334;20.890;2023-06-04T07:33:18;1.07;;;0.90;;
19358;SDS011;9815;52.334;20.890;2023-06-04T07:35:46;1.63;;;0.93;;
19358;SDS011;9815;52.334;20.890;2023-06-04T07:38:14;2.60;;;1.20;;
19358;SDS011;9815;52.334;20.890;2023-06-04T07:40:45;6.73;;;1.23;;
19358;SDS011;9815;52.334;20.890;2023-06-04T07:43:14;3.50;;;1.10;;
19358;SDS011;9815;52.334;20.890;2023-06-04T07:45:43;1.53;;;0.90;;
19358;SDS011;9815;52.334;20.890;2023-06-04T07:48:11;2.60;;;1.00;;
19358;SDS011;9815;52.334;20.890;2023-06-04T07:50:40;2.07;;;1.00;;
19358;SDS011;9815;52.334;20.890;2023-06-04T07:53:08;1.87;;;1.10;;
19358;SDS011;9815;52.334;20.890;2023-06-04T07:55:36;1.30;;;0.90;;
19358;SDS011;9815;52.334;20.890;2023-06-04T07:58:04;1.50;;;0.93;;
19358;SDS011;9815;52.334;20.890;2023-06-04T08:00:33;1.50;;;1.00;;
19358;SDS011;9815;52.334;20.890;2023-06-04T08:03:03;2.00;;;1.07;;
19358;SDS011;9815;52.334;20.890;2023-06-04T08:05:31;1.67;;;0.90;;
19358;SDS011;9815;52.334;20.890;2023-06-04T08:08:00;1.87;;;0.80;;
19358;SDS011;9815;52.334;20.890;2023-06-04T08:10:29;1.20;;;0.80;;
19358;SDS011;9815;52.334;20.890;2023-06-04T08:12:58;1.50;;;0.90;;
19358;SDS011;9815;52.334;20.890;2023-06-04T08:15:26;2.70;;;1.03;;
19358;SDS011;9815;52.334;20.890;2023-06-04T08:17:54;2.47;;;0.90;;
19358;SDS011;9815;52.334;20.890;2023-06-04T08:20:24;2.30;;;0.90;;
19358;SDS011;9815;52.334;20.890;2023-06-04T08:22:53;1.13;;;1.00;;
19358;SDS011;9815;52.334;20.890;2023-06-04T08:25:21;2.13;;;1.00;;
19358;SDS011;9815;52.334;20.890;2023-06-04T08:27:49;1.43;;;0.90;;
19358;SDS011;9815;52.334;20.890;2023-06-04T08:30:17;1.30;;;1.00;;
19358;SDS011;9815;52.334;20.890;2023-06-04T08:32:45;4.37;;;0.80;;
19358;SDS011;9815;52.334;20.890;2023-06-04T08:35:15;3.97;;;1.10;;
19358;SDS011;9815;52.334;20.890;2023-06-04T08:37:44;3.13;;;1.00;;
19358;SDS011;9815;52.334;20.890;2023-06-04T08:40:12;2.30;;;1.30;;
19358;SDS011;9815;52.334;20.890;2023-06-04T08:42:41;1.37;;;1.00;;
19358;SDS011;9815;52.334;20.890;2023-06-04T08:45:12;1.43;;;1.00;;
19358;SDS011;9815;52.334;20.890;2023-06-04T08:47:42;3.53;;;1.10;;
19358;SDS011;9815;52.334;20.890;2023-06-04T08:50:12;1.93;;;0.90;;
19358;SDS011;9815;52.334;20.890;2023-06-04T08:52:42;1.73;;;0.90;;
19358;SDS011;9815;52.334;20.890;2023-06-04T08:55:12;1.90;;;1.23;;
19358;SDS011;9815;52.334;20.890;2023-06-04T08:57:43;1.27;;;0.87;;
19358;SDS011;9815;52.334;20.890;2023-06-04T09:00:13;2.90;;;0.90;;
19358;SDS011;9815;52.334;20.890;2023-06-04T09:02:43;1.77;;;0.83;;
19358;SDS011;9815;52.334;20.890;2023-06-04T09:05:17;1.67;;;0.90;;
19358;SDS011;9815;52.334;20.890;2023-06-04T09:07:48;2.17;;;0.70;;
19358;SDS011;9815;52.334;20.890;2023-06-04T09:10:21;1.43;;;0.77;;
19358;SDS011;9815;52.334;20.890;2023-06-04T09:12:51;1.70;;;0.80;;
19358;SDS011;9815;52.334;20.890;2023-06-04T09:15:21;2.07;;;0.70;;
19358;SDS011;9815;52.334;20.890;2023-06-04T09:17:49;1.20;;;0.70;;
19358;SDS011;9815;52.334;20.890;2023-06-04T09:20:18;2.27;;;0.90;;
19358;SDS011;9815;52.334;20.890;2023-06-04T09:22:46;5.03;;;0.90;;
19358;SDS011;9815;52.334;20.890;2023-06-04T09:25:24;2.55;;;0.80;;
19358;SDS011;9815;52.334;20.890;2023-06-04T09:27:57;1.50;;;0.80;;
19358;SDS011;9815;52.334;20.890;2023-06-04T09:30:33;1.17;;;0.70;;
19358;SDS011;9815;52.334;20.890;2023-06-04T09:33:06;3.45;;;0.70;;
19358;SDS011;9815;52.334;20.890;2023-06-04T09:35:34;1.75;;;0.90;;
19358;SDS011;9815;52.334;20.890;2023-06-04T09:38:04;1.88;;;0.80;;
19358;SDS011;9815;52.334;20.890;2023-06-04T09:40:38;1.58;;;0.98;;
19358;SDS011;9815;52.334;20.890;2023-06-04T09:43:07;3.50;;;0.80;;
19358;SDS011;9815;52.334;20.890;2023-06-04T09:45:38;1.70;;;0.98;;
19358;SDS011;9815;52.334;20.890;2023-06-04T09:48:06;2.42;;;0.80;;
19358;SDS011;9815;52.334;20.890;2023-06-04T09:50:35;2.13;;;1.02;;
19358;SDS011;9815;52.334;20.890;2023-06-04T09:53:12;1.10;;;0.75;;
19358;SDS011;9815;52.334;20.890;2023-06-04T09:55:43;1.80;;;0.93;;
19358;SDS011;9815;52.334;20.890;2023-06-04T09:58:11;1.88;;;0.73;;
19358;SDS011;9815;52.334;20.890;2023-06-04T10:00:39;2.20;;;0.80;;
19358;SDS011;9815;52.334;20.890;2023-06-04T10:03:08;3.92;;;0.90;;
19358;SDS011;9815;52.334;20.890;2023-06-04T10:05:43;4.95;;;0.88;;
19358;SDS011;9815;52.334;20.890;2023-06-04T10:08:11;2.80;;;0.88;;
19358;SDS011;9815;52.334;20.890;2023-06-04T10:10:44;1.10;;;0.88;;
19358;SDS011;9815;52.334;20.890;2023-06-04T10:13:14;2.28;;;0.70;;
19358;SDS011;9815;52.334;20.890;2023-06-04T10:15:44;2.88;;;0.80;;
19358;SDS011;9815;52.334;20.890;2023-06-04T10:18:13;1.27;;;0.73;;
19358;SDS011;9815;52.334;20.890;2023-06-04T10:20:43;1.73;;;0.85;;
19358;SDS011;9815;52.334;20.890;2023-06-04T10:23:12;1.10;;;0.70;;
19358;SDS011;9815;52.334;20.890;2023-06-04T10:25:43;1.58;;;0.80;;
19358;SDS011;9815;52.334;20.890;2023-06-04T10:28:13;2.38;;;1.00;;
19358;SDS011;9815;52.334;20.890;2023-06-04T10:30:43;1.40;;;0.80;;
19358;SDS011;9815;52.334;20.890;2023-06-04T10:33:11;1.45;;;0.73;;
19358;SDS011;9815;52.334;20.890;2023-06-04T10:35:44;1.38;;;0.80;;
19358;SDS011;9815;52.334;20.890;2023-06-04T10:38:13;1.67;;;0.80;;
19358;SDS011;9815;52.334;20.890;2023-06-04T10:40:44;2.47;;;0.80;;
19358;SDS011;9815;52.334;20.890;2023-06-04T10:43:12;2.67;;;0.93;;
19358;SDS011;9815;52.334;20.890;2023-06-04T10:45:42;3.50;;;0.85;;
19358;SDS011;9815;52.334;20.890;2023-06-04T10:48:11;2.00;;;0.80;;
19358;SDS011;9815;52.334;20.890;2023-06-04T10:50:50;1.38;;;0.85;;
19358;SDS011;9815;52.334;20.890;2023-06-04T10:53:19;1.88;;;0.88;;
19358;SDS011;9815;52.334;20.890;2023-06-04T10:55:50;2.97;;;0.82;;
19358;SDS011;9815;52.334;20.890;2023-06-04T10:58:18;2.33;;;0.73;;
19358;SDS011;9815;52.334;20.890;2023-06-04T11:00:47;0.93;;;0.52;;
19358;SDS011;9815;52.334;20.890;2023-06-04T11:03:16;0.77;;;0.68;;
19358;SDS011;9815;52.334;20.890;2023-06-04T11:05:45;3.53;;;0.93;;
19358;SDS011;9815;52.334;20.890;2023-06-04T11:08:14;1.10;;;0.80;;
19358;SDS011;9815;52.334;20.890;2023-06-04T11:10:55;2.00;;;0.60;;
19358;SDS011;9815;52.334;20.890;2023-06-04T11:13:23;2.90;;;0.70;;
19358;SDS011;9815;52.334;20.890;2023-06-04T11:15:52;1.70;;;0.80;;
19358;SDS011;9815;52.334;20.890;2023-06-04T11:18:20;0.93;;;0.70;;
19358;SDS011;9815;52.334;20.890;2023-06-04T11:20:59;2.38;;;1.10;;
19358;SDS011;9815;52.334;20.890;2023-06-04T11:23:28;6.93;;;1.10;;
19358;SDS011;9815;52.334;20.890;2023-06-04T11:25:58;1.02;;;0.70;;
19358;SDS011;9815;52.334;20.890;2023-06-04T11:28:26;1.25;;;0.70;;
19358;SDS011;9815;52.334;20.890;2023-06-04T11:30:58;1.70;;;1.00;;
19358;SDS011;9815;52.334;20.890;2023-06-04T11:33:29;2.83;;;0.80;;
19358;SDS011;9815;52.334;20.890;2023-06-04T11:35:57;1.35;;;0.70;;
19358;SDS011;9815;52.334;20.890;2023-06-04T11:38:25;1.17;;;0.80;;
19358;SDS011;9815;52.334;20.890;2023-06-04T11:41:01;2.88;;;0.70;;
19358;SDS011;9815;52.334;20.890;2023-06-04T11:43:32;0.73;;;0.73;;
19358;SDS011;9815;52.334;20.890;2023-06-04T11:46:05;2.05;;;0.75;;
19358;SDS011;9815;52.334;20.890;2023-06-04T11:48:37;2.30;;;0.80;;
19358;SDS011;9815;52.334;20.890;2023-06-04T11:51:08;1.10;;;0.73;;
19358;SDS011;9815;52.334;20.890;2023-06-04T11:53:37;0.98;;;0.70;;
19358;SDS011;9815;52.334;20.890;2023-06-04T11:56:07;4.63;;;0.82;;
19358;SDS011;9815;52.334;20.890;2023-06-04T11:58:36;1.45;;;0.95;;
19358;SDS011;9815;52.334;20.890;2023-06-04T12:01:05;1.60;;;0.80;;
19358;SDS011;9815;52.334;20.890;2023-06-04T12:03:34;4.35;;;0.80;;
19358;SDS011;9815;52.334;20.890;2023-06-04T12:06:11;3.22;;;0.95;;
19358;SDS011;9815;52.334;20.890;2023-06-04T12:08:49;0.93;;;0.68;;
19358;SDS011;9815;52.334;20.890;2023-06-04T12:11:27;3.88;;;1.08;;
19358;SDS011;9815;52.334;20.890;2023-06-04T12:13:58;5.03;;;1.00;;
19358;SDS011;9815;52.334;20.890;2023-06-04T12:16:29;2.10;;;0.73;;
19358;SDS011;9815;52.334;20.890;2023-06-04T12:19:04;1.15;;;0.70;;
19358;SDS011;9815;52.334;20.890;2023-06-04T12:21:36;1.73;;;0.90;;
19358;SDS011;9815;52.334;20.890;2023-06-04T12:24:05;1.55;;;0.90;;
19358;SDS011;9815;52.334;20.890;2023-06-04T12:26:36;1.70;;;1.00;;
19358;SDS011;9815;52.334;20.890;2023-06-04T12:29:07;1.55;;;0.90;;
19358;SDS011;9815;52.334;20.890;2023-06-04T12:31:38;3.63;;;0.90;;
19358;SDS011;9815;52.334;20.890;2023-06-04T12:34:06;2.08;;;0.90;;
19358;SDS011;9815;52.334;20.890;2023-06-04T12:36:34;2.60;;;0.75;;
19358;SDS011;9815;52.334;20.890;2023-06-04T12:39:03;1.52;;;0.70;;
19358;SDS011;9815;52.334;20.890;2023-06-04T12:41:33;5.32;;;0.90;;
19358;SDS011;9815;52.334;20.890;2023-06-04T12:44:03;2.75;;;0.90;;
19358;SDS011;9815;52.334;20.890;2023-06-04T12:46:31;1.38;;;0.82;;
19358;SDS011;9815;52.334;20.890;2023-06-04T12:48:59;1.45;;;0.75;;
19358;SDS011;9815;52.334;20.890;2023-06-04T12:51:27;3.10;;;0.90;;
19358;SDS011;9815;52.334;20.890;2023-06-04T12:53:56;1.77;;;0.80;;
19358;SDS011;9815;52.334;20.890;2023-06-04T12:56:25;4.10;;;0.90;;
19358;SDS011;9815;52.334;20.890;2023-06-04T12:58:53;2.63;;;0.75;;
19358;SDS011;9815;52.334;20.890;2023-06-04T13:01:22;3.33;;;1.00;;
19358;SDS011;9815;52.334;20.890;2023-06-04T13:03:53;2.42;;;0.80;;
19358;SDS011;9815;52.334;20.890;2023-06-04T13:06:22;2.88;;;1.00;;
19358;SDS011;9815;52.334;20.890;2023-06-04T13:08:50;1.08;;;0.80;;
19358;SDS011;9815;52.334;20.890;2023-06-04T13:11:18;3.10;;;1.10;;
19358;SDS011;9815;52.334;20.890;2023-06-04T13:13:46;2.75;;;0.75;;
19358;SDS011;9815;52.334;20.890;2023-06-04T13:16:14;5.15;;;0.90;;
19358;SDS011;9815;52.334;20.890;2023-06-04T13:18:44;1.13;;;0.73;;
19358;SDS011;9815;52.334;20.890;2023-06-04T13:21:13;1.77;;;0.80;;
19358;SDS011;9815;52.334;20.890;2023-06-04T13:23:41;2.53;;;1.00;;
19358;SDS011;9815;52.334;20.890;2023-06-04T13:26:16;3.80;;;0.80;;
19358;SDS011;9815;52.334;20.890;2023-06-04T13:28:46;2.53;;;0.80;;
19358;SDS011;9815;52.334;20.890;2023-06-04T13:31:14;2.33;;;0.75;;
19358;SDS011;9815;52.334;20.890;2023-06-04T13:33:42;2.78;;;0.90;;
19358;SDS011;9815;52.334;20.890;2023-06-04T13:36:12;1.10;;;0.70;;
19358;SDS011;9815;52.334;20.890;2023-06-04T13:38:40;1.17;;;0.70;;
19358;SDS011;9815;52.334;20.890;2023-06-04T13:41:09;1.55;;;0.80;;
19358;SDS011;9815;52.334;20.890;2023-06-04T13:43:38;1.80;;;1.00;;
19358;SDS011;9815;52.334;20.890;2023-06-04T13:46:06;2.22;;;0.80;;
19358;SDS011;9815;52.334;20.890;2023-06-04T13:48:34;4.72;;;0.98;;
19358;SDS011;9815;52.334;20.890;2023-06-04T13:51:04;1.80;;;0.90;;
19358;SDS011;9815;52.334;20.890;2023-06-04T13:53:32;2.90;;;0.77;;
19358;SDS011;9815;52.334;20.890;2023-06-04T13:56:00;1.05;;;0.70;;
19358;SDS011;9815;52.334;20.890;2023-06-04T13:58:28;1.17;;;0.68;;
19358;SDS011;9815;52.334;20.890;2023-06-04T14:00:56;1.45;;;0.85;;
19358;SDS011;9815;52.334;20.890;2023-06-04T14:03:24;4.82;;;1.33;;
19358;SDS011;9815;52.334;20.890;2023-06-04T14:05:53;5.65;;;1.02;;
19358;SDS011;9815;52.334;20.890;2023-06-04T14:08:22;1.17;;;0.70;;
19358;SDS011;9815;52.334;20.890;2023-06-04T14:10:50;1.60;;;0.93;;
19358;SDS011;9815;52.334;20.890;2023-06-04T14:13:21;2.25;;;0.85;;
19358;SDS011;9815;52.334;20.890;2023-06-04T14:15:49;1.45;;;0.85;;
19358;SDS011;9815;52.334;20.890;2023-06-04T14:18:17;2.90;;;0.80;;
19358;SDS011;9815;52.334;20.890;2023-06-04T14:20:46;1.90;;;0.77;;
19358;SDS011;9815;52.334;20.890;2023-06-04T14:23:14;1.42;;;0.85;;
19358;SDS011;9815;52.334;20.890;2023-06-04T14:25:44;1.58;;;1.00;;
19358;SDS011;9815;52.334;20.890;2023-06-04T14:28:12;1.45;;;0.80;;
19358;SDS011;9815;52.334;20.890;2023-06-04T14:30:40;1.63;;;0.70;;
19358;SDS011;9815;52.334;20.890;2023-06-04T14:33:08;4.65;;;1.00;;
19358;SDS011;9815;52.334;20.890;2023-06-04T14:35:36;2.47;;;0.70;;
19358;SDS011;9815;52.334;20.890;2023-06-04T14:38:05;5.78;;;1.20;;
19358;SDS011;9815;52.334;20.890;2023-06-04T14:40:33;1.63;;;0.82;;
19358;SDS011;9815;52.334;20.890;2023-06-04T14:43:03;1.67;;;1.00;;
19358;SDS011;9815;52.334;20.890;2023-06-04T14:45:31;1.98;;;0.70;;
19358;SDS011;9815;52.334;20.890;2023-06-04T14:47:59;4.18;;;0.85;;
19358;SDS011;9815;52.334;20.890;2023-06-04T14:50:40;1.58;;;0.73;;
19358;SDS011;9815;52.334;20.890;2023-06-04T14:53:08;2.03;;;0.80;;
19358;SDS011;9815;52.334;20.890;2023-06-04T14:55:36;3.53;;;0.95;;